In Rescue
 
Open Full Screen Window  High Contrast Mode
Wind Gusting 14 knots
07
May 20, 2019 3:07 PM EDT
Weather Information
Wind Direction
  340 °
Wind Speed
  07 kt (8 mph)
Wind Gust
  14 kt (16 mph)
Altimeter
30.02 in
Visibility
10 SM
Temperature
09° C
48° F
Dewpoint
04° C
39° F
Humidity
71%
1hr Rain Fall
00.00 in.
24hr Rain Fall
00.14 in.
Sky Condition
Overcast @ 2,800 ft
Broken @ 2,100 ft
MVFR

METAR KRQB 201907Z AUTO 34007G14KT 10SM BKN021 OVC028 09/04 A3002 RMK AO2 T00890037

FAA Disclaimer: The data displayed is for advisory purposes only and is not to be used for flight planning or operations.